Time;durP1;ratioP1;P1;durP2;ratioP2;P2;SDS_P1;SDS_P2;PMS_P1;PMS_P2;Temp;Humidity;BMP_temperature;BMP_pressure;BME280_temperature;BME280_humidity;BME280_pressure;Samples;Min_cycle;Max_cycle;Signal;HPM_P1;HPM_P2
2023/08/15 00:01:15;;;;;;;;;;;21.10;99.90;;;;;;8444675;28;19969;-70
2023/08/15 00:05:17;;;;;;;;;;;21.10;99.90;;;;;;8441155;27;19924;-70
2023/08/15 00:09:19;;;;;;;;;;;21.00;99.90;;;;;;8459965;27;19924;-70
2023/08/15 00:13:20;;;;;;;;;;;21.00;99.90;;;;;;8450298;28;19924;-70
2023/08/15 00:17:22;;;;;;;;;;;21.00;99.90;;;;;;8444730;28;19931;-70
2023/08/15 00:21:24;;;;;;;;;;;20.90;99.90;;;;;;8466357;27;19931;-70
2023/08/15 00:25:25;;;;;;;;;;;20.90;99.90;;;;;;8435734;28;19947;-70
2023/08/15 00:29:27;;;;;;;;;;;20.80;99.90;;;;;;8430915;28;19928;-70
2023/08/15 00:33:28;;;;;;;;;;;20.70;99.90;;;;;;8450323;27;19923;-70
2023/08/15 00:37:34;;;;;;;;;;;20.60;99.90;;;;;;8442801;28;19928;-70
2023/08/15 00:41:36;;;;;;;;;;;20.60;99.90;;;;;;8452206;28;19977;-70
2023/08/15 00:45:39;;;;;;;;;;;20.60;99.90;;;;;;8455041;27;19932;-69
2023/08/15 00:49:42;;;;;;;;;;;20.60;99.90;;;;;;8452409;27;19931;-70
2023/08/15 00:53:43;;;;;;;;;;;20.50;99.90;;;;;;8428381;28;19947;-70
2023/08/15 00:57:45;;;;;;;;;;;20.50;99.90;;;;;;8445529;28;19924;-69
2023/08/15 01:01:47;;;;;;;;;;;20.50;99.90;;;;;;8450486;28;19924;-70
2023/08/15 01:05:49;;;;;;;;;;;20.40;99.90;;;;;;8451497;28;20402;-69
2023/08/15 01:09:51;;;;;;;;;;;20.40;99.90;;;;;;8433167;28;20397;-70
2023/08/15 01:13:59;;;;;;;;;;;20.40;99.90;;;;;;8456953;28;20333;-70
2023/08/15 01:18:04;;;;;;;;;;;20.30;99.90;;;;;;8442062;28;19932;-70
2023/08/15 01:22:19;;;;;;;;;;;20.30;99.90;;;;;;8448041;28;19936;-70
2023/08/15 01:26:21;;;;;;;;;;;20.20;99.90;;;;;;8454064;28;19968;-70
2023/08/15 01:30:23;;;;;;;;;;;20.20;99.90;;;;;;8450047;28;19928;-70
2023/08/15 01:34:28;;;;;;;;;;;20.20;99.90;;;;;;8453317;28;19982;-70
2023/08/15 01:38:36;;;;;;;;;;;20.10;99.90;;;;;;8450948;28;19923;-70
2023/08/15 01:42:40;;;;;;;;;;;20.10;99.90;;;;;;8448257;28;19924;-70
2023/08/15 01:46:46;;;;;;;;;;;20.10;99.90;;;;;;8456785;28;20371;-70
2023/08/15 01:50:48;;;;;;;;;;;20.00;99.90;;;;;;8430546;28;19924;-69
2023/08/15 02:00:09;;;;;;;;;;;20.10;99.90;;;;;;8420899;28;19966;-69
2023/08/15 02:04:11;;;;;;;;;;;20.00;99.90;;;;;;8386422;28;19995;-70
2023/08/15 02:08:13;;;;;;;;;;;20.00;99.90;;;;;;8402477;28;20367;-70
2023/08/15 02:12:15;;;;;;;;;;;19.90;99.90;;;;;;8404260;28;19939;-69
2023/08/15 02:16:18;;;;;;;;;;;19.90;99.90;;;;;;8396597;28;19924;-70
2023/08/15 02:20:19;;;;;;;;;;;19.80;99.90;;;;;;8403943;28;19925;-70
2023/08/15 02:24:21;;;;;;;;;;;19.80;99.90;;;;;;8391951;28;20270;-70
2023/08/15 02:28:23;;;;;;;;;;;19.80;99.90;;;;;;8410520;28;20365;-70
2023/08/15 02:32:24;;;;;;;;;;;19.70;99.90;;;;;;8394637;28;19929;-70
2023/08/15 02:36:26;;;;;;;;;;;19.70;99.90;;;;;;8398362;28;19928;-70
2023/08/15 02:40:28;;;;;;;;;;;19.70;99.90;;;;;;8382687;28;19974;-69
2023/08/15 02:44:30;;;;;;;;;;;19.70;99.90;;;;;;8408424;28;20352;-70
2023/08/15 02:48:31;;;;;;;;;;;19.70;99.90;;;;;;8384727;28;20050;-69
2023/08/15 02:52:33;;;;;;;;;;;19.70;99.90;;;;;;8382847;28;19925;-70
2023/08/15 02:56:35;;;;;;;;;;;19.60;99.90;;;;;;8405663;28;19927;-70
2023/08/15 03:00:37;;;;;;;;;;;19.60;99.90;;;;;;8383255;28;19927;-70
2023/08/15 03:04:39;;;;;;;;;;;19.60;99.90;;;;;;8429309;28;19931;-70
2023/08/15 03:08:40;;;;;;;;;;;19.60;99.90;;;;;;8413734;28;19924;-70
2023/08/15 03:12:43;;;;;;;;;;;19.60;99.90;;;;;;8421708;28;19928;-69
2023/08/15 03:16:45;;;;;;;;;;;19.60;99.90;;;;;;8401824;28;20027;-70
2023/08/15 03:21:03;;;;;;;;;;;19.60;99.90;;;;;;8438936;28;19972;-70
2023/08/15 03:25:05;;;;;;;;;;;19.60;99.90;;;;;;8393325;28;19982;-70
2023/08/15 03:29:06;;;;;;;;;;;19.50;99.90;;;;;;8415695;28;20269;-69
2023/08/15 03:33:08;;;;;;;;;;;19.50;99.90;;;;;;8402022;28;20399;-70
2023/08/15 03:37:10;;;;;;;;;;;19.50;99.90;;;;;;8424890;28;19930;-70
2023/08/15 03:41:11;;;;;;;;;;;19.50;99.90;;;;;;8457336;28;19923;-69
2023/08/15 03:45:13;;;;;;;;;;;19.40;99.90;;;;;;8415741;28;19935;-69
2023/08/15 03:49:16;;;;;;;;;;;19.40;99.90;;;;;;8445206;28;19932;-70
2023/08/15 03:53:17;;;;;;;;;;;19.30;99.90;;;;;;8452326;27;19931;-70
2023/08/15 03:57:19;;;;;;;;;;;19.20;99.90;;;;;;8419690;28;19927;-70
2023/08/15 04:01:21;;;;;;;;;;;19.20;99.90;;;;;;8432308;28;19931;-70
2023/08/15 04:05:24;;;;;;;;;;;19.10;99.90;;;;;;8450366;28;19980;-70
2023/08/15 04:09:26;;;;;;;;;;;19.10;99.90;;;;;;8449725;28;19927;-70
2023/08/15 04:13:28;;;;;;;;;;;19.00;99.90;;;;;;8418000;28;20285;-70
2023/08/15 04:17:30;;;;;;;;;;;19.00;99.90;;;;;;8435931;28;19940;-70
2023/08/15 04:21:31;;;;;;;;;;;18.90;99.90;;;;;;8432477;28;20347;-70
2023/08/15 04:25:34;;;;;;;;;;;18.90;99.90;;;;;;8421181;28;20372;-70
2023/08/15 04:29:35;;;;;;;;;;;18.80;99.90;;;;;;8447169;28;19932;-70
2023/08/15 04:33:37;;;;;;;;;;;18.80;99.90;;;;;;8443465;28;19977;-70
2023/08/15 04:37:39;;;;;;;;;;;18.70;99.90;;;;;;8437895;28;19924;-70
2023/08/15 04:41:41;;;;;;;;;;;18.70;99.90;;;;;;8411523;28;20444;-70
2023/08/15 04:45:43;;;;;;;;;;;18.70;99.90;;;;;;8408686;28;19977;-70
2023/08/15 04:49:46;;;;;;;;;;;18.60;99.90;;;;;;8436346;28;20363;-70
2023/08/15 04:53:50;;;;;;;;;;;18.60;99.90;;;;;;8416178;28;19938;-70
2023/08/15 04:57:52;;;;;;;;;;;18.60;99.90;;;;;;8433793;28;20367;-70
2023/08/15 05:01:53;;;;;;;;;;;18.70;99.90;;;;;;8393642;28;20031;-70
2023/08/15 05:05:55;;;;;;;;;;;18.70;99.90;;;;;;8407624;28;20035;-70
2023/08/15 05:09:57;;;;;;;;;;;18.70;99.90;;;;;;8403463;28;19924;-70
2023/08/15 05:14:01;;;;;;;;;;;18.70;99.90;;;;;;8423891;28;19924;-70
2023/08/15 05:18:03;;;;;;;;;;;18.80;99.90;;;;;;8435339;28;19928;-70
2023/08/15 05:22:05;;;;;;;;;;;18.80;99.90;;;;;;8435485;28;20360;-70
2023/08/15 05:26:07;;;;;;;;;;;18.90;99.90;;;;;;8416561;28;19928;-70
2023/08/15 05:30:09;;;;;;;;;;;18.90;99.90;;;;;;8444560;28;19965;-70
2023/08/15 05:34:10;;;;;;;;;;;19.00;99.90;;;;;;8444392;28;19924;-70
2023/08/15 05:38:12;;;;;;;;;;;19.00;99.90;;;;;;8413748;28;19963;-70
2023/08/15 05:42:17;;;;;;;;;;;19.10;99.90;;;;;;8436234;28;19924;-70
2023/08/15 05:46:19;;;;;;;;;;;19.10;99.90;;;;;;8412527;28;19931;-70
2023/08/15 05:50:21;;;;;;;;;;;19.10;99.90;;;;;;8426572;28;19956;-70
2023/08/15 05:54:22;;;;;;;;;;;19.20;99.90;;;;;;8432746;28;19928;-70
2023/08/15 05:58:24;;;;;;;;;;;19.20;99.90;;;;;;8410286;28;19924;-70
2023/08/15 06:02:26;;;;;;;;;;;19.30;99.90;;;;;;8439619;28;19931;-70
2023/08/15 06:06:29;;;;;;;;;;;19.40;99.90;;;;;;8443020;28;19924;-70
2023/08/15 06:10:30;;;;;;;;;;;19.50;99.90;;;;;;8448423;28;19931;-70
2023/08/15 06:14:33;;;;;;;;;;;19.50;99.90;;;;;;8443655;28;20367;-70
2023/08/15 06:18:35;;;;;;;;;;;19.60;99.90;;;;;;8414049;28;19928;-71
2023/08/15 06:22:37;;;;;;;;;;;19.60;99.90;;;;;;8442786;28;20007;-71
2023/08/15 06:26:39;;;;;;;;;;;19.60;99.90;;;;;;8430176;28;19950;-70
2023/08/15 06:30:41;;;;;;;;;;;19.70;99.90;;;;;;8449271;28;19949;-70
2023/08/15 06:34:43;;;;;;;;;;;19.80;99.90;;;;;;8440863;28;20355;-70
2023/08/15 06:38:44;;;;;;;;;;;19.90;99.90;;;;;;8405435;28;19924;-71
2023/08/15 06:42:46;;;;;;;;;;;20.00;99.90;;;;;;8441279;28;19962;-71
2023/08/15 06:46:49;;;;;;;;;;;20.00;99.90;;;;;;8438982;27;19924;-70
2023/08/15 06:50:50;;;;;;;;;;;20.00;99.90;;;;;;8447392;28;19971;-70
2023/08/15 06:54:52;;;;;;;;;;;20.00;99.90;;;;;;8447235;28;20371;-71
2023/08/15 06:58:54;;;;;;;;;;;20.00;99.90;;;;;;8397867;28;19931;-71
2023/08/15 07:02:55;;;;;;;;;;;19.90;99.90;;;;;;8401913;28;19924;-70
2023/08/15 07:06:58;;;;;;;;;;;19.90;99.90;;;;;;8403479;28;20272;-71
2023/08/15 07:11:00;;;;;;;;;;;19.90;99.90;;;;;;8403202;28;19929;-70
2023/08/15 07:15:02;;;;;;;;;;;19.90;99.90;;;;;;8401222;28;20294;-70
2023/08/15 07:19:04;;;;;;;;;;;19.90;99.90;;;;;;8397690;28;19924;-70
2023/08/15 07:23:07;;;;;;;;;;;20.00;99.90;;;;;;8384638;28;19936;-71
2023/08/15 07:27:09;;;;;;;;;;;20.00;99.90;;;;;;8396063;28;20368;-71
2023/08/15 07:31:10;;;;;;;;;;;20.00;99.90;;;;;;8395606;28;19924;-71
2023/08/15 07:35:12;;;;;;;;;;;20.10;99.90;;;;;;8397559;28;19924;-71
2023/08/15 07:39:14;;;;;;;;;;;20.10;99.90;;;;;;8399681;28;19970;-71
2023/08/15 07:43:16;;;;;;;;;;;20.20;99.90;;;;;;8398632;28;19981;-71
2023/08/15 07:47:18;;;;;;;;;;;20.20;99.90;;;;;;8391283;28;19924;-71
2023/08/15 07:51:19;;;;;;;;;;;20.20;99.90;;;;;;8398529;28;19928;-71
2023/08/15 07:55:21;;;;;;;;;;;20.20;99.90;;;;;;8392361;28;19923;-71
2023/08/15 07:59:23;;;;;;;;;;;20.20;99.90;;;;;;8396203;28;20356;-71
2023/08/15 08:03:25;;;;;;;;;;;20.20;99.90;;;;;;8416721;27;19925;-71
2023/08/15 08:07:28;;;;;;;;;;;20.20;99.90;;;;;;8417628;27;21268;-71
2023/08/15 08:11:30;;;;;;;;;;;20.30;99.90;;;;;;8396016;28;19932;-71
2023/08/15 08:15:32;;;;;;;;;;;20.40;99.90;;;;;;8390324;28;19928;-71
2023/08/15 08:19:33;;;;;;;;;;;20.60;99.90;;;;;;8398282;28;19932;-70
2023/08/15 08:23:35;;;;;;;;;;;20.70;99.90;;;;;;8398406;28;19974;-70
2023/08/15 08:27:37;;;;;;;;;;;20.80;99.90;;;;;;8397743;28;20300;-70
2023/08/15 08:31:39;;;;;;;;;;;20.80;99.90;;;;;;8389132;28;21929;-71
2023/08/15 08:35:41;;;;;;;;;;;20.90;99.90;;;;;;8398548;28;20249;-71
2023/08/15 08:39:43;;;;;;;;;;;20.90;99.90;;;;;;8401308;28;19928;-71
2023/08/15 08:43:44;;;;;;;;;;;20.90;99.90;;;;;;8385694;28;19943;-71
2023/08/15 08:47:46;;;;;;;;;;;20.90;99.90;;;;;;8396270;28;19923;-70
2023/08/15 08:51:48;;;;;;;;;;;21.00;99.90;;;;;;8394121;28;19935;-71
2023/08/15 08:55:50;;;;;;;;;;;21.10;99.90;;;;;;8400891;28;19924;-70
2023/08/15 08:59:53;;;;;;;;;;;21.10;99.90;;;;;;8397455;28;19925;-71
2023/08/15 09:03:55;;;;;;;;;;;21.10;99.90;;;;;;8400323;28;20257;-71
2023/08/15 09:07:57;;;;;;;;;;;21.10;99.90;;;;;;8412879;28;19929;-70
2023/08/15 09:11:59;;;;;;;;;;;21.20;99.90;;;;;;8392761;28;20352;-71
2023/08/15 09:16:03;;;;;;;;;;;21.20;99.90;;;;;;8397545;28;20384;-71
2023/08/15 09:20:10;;;;;;;;;;;21.20;99.90;;;;;;8387362;28;20377;-71
2023/08/15 09:24:12;;;;;;;;;;;21.30;99.90;;;;;;8395480;28;19925;-71
2023/08/15 09:28:15;;;;;;;;;;;21.40;99.90;;;;;;8399223;28;19931;-70
2023/08/15 09:32:17;;;;;;;;;;;21.50;99.90;;;;;;8401459;28;22485;-70
2023/08/15 09:36:18;;;;;;;;;;;21.60;99.90;;;;;;8405045;28;19924;-71
2023/08/15 09:40:24;;;;;;;;;;;21.70;99.90;;;;;;8404108;28;19928;-71
2023/08/15 09:44:33;;;;;;;;;;;21.80;99.90;;;;;;8402385;28;20357;-70
2023/08/15 09:48:34;;;;;;;;;;;21.70;99.90;;;;;;8403700;28;19924;-70
2023/08/15 09:52:44;;;;;;;;;;;21.80;99.90;;;;;;8388309;28;19935;-71
2023/08/15 09:56:46;;;;;;;;;;;21.80;99.90;;;;;;8392716;28;20031;-71
2023/08/15 10:00:51;;;;;;;;;;;21.90;99.90;;;;;;8390933;28;19928;-71
2023/08/15 10:04:59;;;;;;;;;;;21.90;99.90;;;;;;8409127;28;19924;-71
2023/08/15 10:09:02;;;;;;;;;;;22.00;99.90;;;;;;8385949;28;20668;-71
2023/08/15 10:13:05;;;;;;;;;;;22.00;99.90;;;;;;8396059;28;19928;-71
2023/08/15 10:17:07;;;;;;;;;;;21.90;99.90;;;;;;8397126;28;19929;-71
2023/08/15 10:21:09;;;;;;;;;;;21.80;99.90;;;;;;8396733;28;19965;-71
2023/08/15 10:25:18;;;;;;;;;;;21.80;99.90;;;;;;8396892;28;20364;-71
2023/08/15 10:29:19;;;;;;;;;;;21.80;99.90;;;;;;8395717;28;19974;-71
2023/08/15 10:33:25;;;;;;;;;;;21.70;99.90;;;;;;8392172;28;21002;-71
2023/08/15 10:37:28;;;;;;;;;;;21.60;99.90;;;;;;8395383;28;19931;-71
2023/08/15 10:41:30;;;;;;;;;;;21.50;99.90;;;;;;8405623;28;19933;-71
2023/08/15 10:45:43;;;;;;;;;;;21.40;99.90;;;;;;8403348;28;19924;-71
2023/08/15 10:49:46;;;;;;;;;;;21.40;99.90;;;;;;8391054;28;19924;-70
2023/08/15 10:53:48;;;;;;;;;;;21.40;99.90;;;;;;8392517;28;20392;-70
2023/08/15 10:57:50;;;;;;;;;;;21.50;99.90;;;;;;8391610;28;20383;-71
2023/08/15 11:01:52;;;;;;;;;;;21.60;99.90;;;;;;8409378;28;19924;-71
2023/08/15 11:06:05;;;;;;;;;;;21.60;99.90;;;;;;8407848;28;19936;-71
2023/08/15 11:10:07;;;;;;;;;;;21.60;99.90;;;;;;8397382;28;19931;-71
2023/08/15 11:14:18;;;;;;;;;;;21.60;99.90;;;;;;8398565;28;19931;-71
2023/08/15 11:18:24;;;;;;;;;;;21.70;99.90;;;;;;8393453;28;19929;-71
2023/08/15 11:22:25;;;;;;;;;;;21.70;99.90;;;;;;8394136;28;20364;-71
2023/08/15 11:26:28;;;;;;;;;;;21.80;99.90;;;;;;8397569;28;19963;-71
2023/08/15 11:30:29;;;;;;;;;;;21.90;99.90;;;;;;8395788;28;19974;-71
2023/08/15 11:34:31;;;;;;;;;;;21.90;99.90;;;;;;8397585;28;19970;-71
2023/08/15 11:38:33;;;;;;;;;;;22.00;99.90;;;;;;8401735;28;20384;-71
2023/08/15 11:42:35;;;;;;;;;;;22.00;99.90;;;;;;8395380;28;19928;-71
2023/08/15 11:46:37;;;;;;;;;;;22.00;99.90;;;;;;8401802;28;19928;-71
2023/08/15 11:50:54;;;;;;;;;;;22.10;99.90;;;;;;8403373;28;19924;-71
2023/08/15 11:55:03;;;;;;;;;;;22.00;99.90;;;;;;8402810;28;20282;-71
2023/08/15 11:59:05;;;;;;;;;;;22.10;99.90;;;;;;8407530;28;19955;-71
2023/08/15 12:03:09;;;;;;;;;;;22.10;99.90;;;;;;8407300;28;20346;-71
2023/08/15 12:07:11;;;;;;;;;;;22.20;99.90;;;;;;8405740;28;19986;-71
2023/08/15 12:11:17;;;;;;;;;;;22.30;99.90;;;;;;8403838;28;20292;-71
2023/08/15 12:15:18;;;;;;;;;;;22.30;99.90;;;;;;8405329;28;19928;-70
2023/08/15 12:19:20;;;;;;;;;;;22.40;99.90;;;;;;8406835;28;19947;-71
2023/08/15 12:23:24;;;;;;;;;;;22.50;99.90;;;;;;8397941;28;19932;-70
2023/08/15 12:27:29;;;;;;;;;;;22.60;99.90;;;;;;8405870;28;19924;-71
2023/08/15 12:31:31;;;;;;;;;;;22.70;99.90;;;;;;8403290;28;19932;-71
2023/08/15 12:35:32;;;;;;;;;;;22.80;99.90;;;;;;8405456;28;19969;-71
2023/08/15 12:39:34;;;;;;;;;;;22.90;99.90;;;;;;8405223;28;20269;-71
2023/08/15 12:43:36;;;;;;;;;;;23.00;99.90;;;;;;8404698;28;20368;-71
2023/08/15 12:47:37;;;;;;;;;;;22.90;99.90;;;;;;8422323;28;20395;-71
2023/08/15 12:51:40;;;;;;;;;;;22.90;99.90;;;;;;8407543;28;20383;-71
2023/08/15 12:55:43;;;;;;;;;;;22.90;99.90;;;;;;8406165;28;19970;-71
2023/08/15 12:59:45;;;;;;;;;;;22.90;99.90;;;;;;8405595;28;19939;-71
2023/08/15 13:03:50;;;;;;;;;;;22.90;99.90;;;;;;8407681;28;20284;-71
2023/08/15 13:07:52;;;;;;;;;;;22.90;99.90;;;;;;8392160;28;19929;-71
2023/08/15 13:11:54;;;;;;;;;;;22.90;99.90;;;;;;8414723;28;19928;-71
2023/08/15 13:15:56;;;;;;;;;;;22.90;99.90;;;;;;8404598;28;19924;-71
2023/08/15 13:19:57;;;;;;;;;;;22.90;99.90;;;;;;8406680;28;19928;-71
2023/08/15 13:23:59;;;;;;;;;;;22.90;99.90;;;;;;8403694;28;19924;-71
2023/08/15 13:28:01;;;;;;;;;;;23.00;99.90;;;;;;8405572;28;19929;-71
2023/08/15 13:32:02;;;;;;;;;;;22.90;99.90;;;;;;8420135;28;20395;-71
2023/08/15 13:36:04;;;;;;;;;;;23.00;99.90;;;;;;8404656;28;19932;-71
2023/08/15 13:40:06;;;;;;;;;;;23.00;99.90;;;;;;8427075;28;19932;-71
2023/08/15 13:44:08;;;;;;;;;;;23.00;99.90;;;;;;8407465;28;19936;-71
2023/08/15 13:48:09;;;;;;;;;;;23.00;99.90;;;;;;8407460;28;19931;-71
2023/08/15 13:52:11;;;;;;;;;;;23.00;99.90;;;;;;8424936;28;20003;-71
2023/08/15 13:56:14;;;;;;;;;;;23.00;99.90;;;;;;8411382;28;19924;-70
2023/08/15 14:00:16;;;;;;;;;;;23.10;99.90;;;;;;8395521;28;19928;-71
2023/08/15 14:04:18;;;;;;;;;;;23.10;99.90;;;;;;8406972;28;19928;-70
2023/08/15 14:08:20;;;;;;;;;;;23.20;99.90;;;;;;8409973;28;19931;-71
2023/08/15 14:12:22;;;;;;;;;;;23.10;99.90;;;;;;8426562;28;19931;-71
2023/08/15 14:16:24;;;;;;;;;;;23.20;99.90;;;;;;8390219;28;19924;-71
2023/08/15 14:20:25;;;;;;;;;;;23.20;99.90;;;;;;8408642;28;19939;-71
2023/08/15 14:24:27;;;;;;;;;;;23.20;99.90;;;;;;8409337;28;20380;-71
2023/08/15 14:28:29;;;;;;;;;;;23.30;99.90;;;;;;8408680;28;19928;-71
2023/08/15 14:32:30;;;;;;;;;;;23.30;99.90;;;;;;8410498;28;19928;-71
2023/08/15 14:36:32;;;;;;;;;;;23.30;99.90;;;;;;8407798;28;19947;-70
2023/08/15 14:40:34;;;;;;;;;;;23.40;99.90;;;;;;8423733;28;20034;-71
2023/08/15 14:44:36;;;;;;;;;;;23.40;99.90;;;;;;8420701;28;19924;-71
2023/08/15 14:48:37;;;;;;;;;;;23.50;99.90;;;;;;8420925;28;20280;-71
2023/08/15 14:52:42;;;;;;;;;;;23.50;99.90;;;;;;8411363;28;19928;-70
2023/08/15 14:56:44;;;;;;;;;;;23.50;99.90;;;;;;8405712;28;19928;-71
2023/08/15 15:00:46;;;;;;;;;;;23.50;99.90;;;;;;8407290;28;19932;-71
2023/08/15 15:04:48;;;;;;;;;;;23.50;99.90;;;;;;8406318;28;19930;-71
2023/08/15 15:08:49;;;;;;;;;;;23.60;99.90;;;;;;8408954;28;19981;-71
2023/08/15 15:12:51;;;;;;;;;;;23.70;99.90;;;;;;8399759;28;19931;-70
2023/08/15 15:16:54;;;;;;;;;;;23.60;99.90;;;;;;8394605;28;19931;-71
2023/08/15 15:20:56;;;;;;;;;;;23.60;99.90;;;;;;8402924;28;19928;-70
2023/08/15 15:24:59;;;;;;;;;;;23.50;99.90;;;;;;8416491;28;19924;-70
2023/08/15 15:29:01;;;;;;;;;;;23.40;99.90;;;;;;8401055;28;19980;-71
2023/08/15 15:33:03;;;;;;;;;;;23.30;99.90;;;;;;8418116;28;19967;-71
2023/08/15 15:37:04;;;;;;;;;;;23.40;99.90;;;;;;8405763;28;19931;-71
2023/08/15 15:41:06;;;;;;;;;;;23.40;99.90;;;;;;8391561;28;19936;-71
2023/08/15 15:45:08;;;;;;;;;;;23.40;99.90;;;;;;8397527;28;19936;-71
2023/08/15 15:49:10;;;;;;;;;;;23.40;99.90;;;;;;8391743;28;19928;-71
2023/08/15 15:53:11;;;;;;;;;;;23.60;99.90;;;;;;8381256;28;19969;-71
2023/08/15 15:57:13;;;;;;;;;;;24.00;99.90;;;;;;8380089;28;19929;-71
2023/08/15 16:01:15;;;;;;;;;;;24.50;99.90;;;;;;8395524;28;19931;-71
2023/08/15 16:05:17;;;;;;;;;;;25.10;99.90;;;;;;8393401;28;20183;-71
2023/08/15 16:09:18;;;;;;;;;;;25.50;99.90;;;;;;8402204;28;19933;-71
2023/08/15 16:13:22;;;;;;;;;;;25.90;99.90;;;;;;8373796;28;19936;-71
2023/08/15 16:17:24;;;;;;;;;;;26.20;99.90;;;;;;8394398;28;19924;-71
2023/08/15 16:21:26;;;;;;;;;;;26.50;99.90;;;;;;8397021;28;19924;-71
2023/08/15 16:25:28;;;;;;;;;;;26.70;99.90;;;;;;8393537;28;19936;-71
2023/08/15 16:29:29;;;;;;;;;;;26.70;99.90;;;;;;8409899;28;19981;-71
2023/08/15 16:33:31;;;;;;;;;;;26.70;99.90;;;;;;8408915;28;20404;-71
2023/08/15 16:37:33;;;;;;;;;;;26.50;99.90;;;;;;8393277;28;20363;-71
2023/08/15 16:41:34;;;;;;;;;;;26.30;99.90;;;;;;8395903;28;20016;-71
2023/08/15 16:45:37;;;;;;;;;;;25.90;99.90;;;;;;8414506;28;19928;-71
2023/08/15 16:49:39;;;;;;;;;;;25.80;99.90;;;;;;8394295;28;19993;-71
2023/08/15 16:53:40;;;;;;;;;;;25.80;99.90;;;;;;8393032;28;19924;-71
2023/08/15 16:57:42;;;;;;;;;;;25.60;99.90;;;;;;8389735;28;19925;-71
2023/08/15 17:01:44;;;;;;;;;;;25.50;99.90;;;;;;8395118;28;20394;-71
2023/08/15 17:05:47;;;;;;;;;;;25.40;99.90;;;;;;8396553;28;19931;-71
2023/08/15 17:09:49;;;;;;;;;;;25.30;99.90;;;;;;8395630;28;19939;-71
2023/08/15 17:13:51;;;;;;;;;;;25.20;99.90;;;;;;8393625;28;20334;-71
2023/08/15 17:17:52;;;;;;;;;;;25.00;99.90;;;;;;8403285;28;19978;-71
2023/08/15 17:21:54;;;;;;;;;;;24.80;99.90;;;;;;8386441;28;19925;-71
2023/08/15 17:25:56;;;;;;;;;;;24.60;99.90;;;;;;8391332;28;19982;-71
2023/08/15 17:29:57;;;;;;;;;;;24.40;99.90;;;;;;8383685;28;19925;-71
2023/08/15 17:33:59;;;;;;;;;;;24.30;99.90;;;;;;8390202;28;19929;-71
2023/08/15 17:38:01;;;;;;;;;;;24.10;99.90;;;;;;8398894;28;19932;-70
2023/08/15 17:42:02;;;;;;;;;;;23.90;99.90;;;;;;8394572;28;19923;-71
2023/08/15 17:46:04;;;;;;;;;;;23.70;99.90;;;;;;8392576;28;19935;-71
2023/08/15 17:50:06;;;;;;;;;;;23.60;99.90;;;;;;8394605;28;19928;-71
2023/08/15 17:54:08;;;;;;;;;;;23.50;99.90;;;;;;8391897;28;19932;-71
2023/08/15 17:58:10;;;;;;;;;;;23.40;99.90;;;;;;8383997;28;19966;-71
2023/08/15 18:02:12;;;;;;;;;;;23.30;99.90;;;;;;8399308;28;20458;-71
2023/08/15 18:06:14;;;;;;;;;;;23.30;99.90;;;;;;8396506;28;19932;-71
2023/08/15 18:10:15;;;;;;;;;;;23.20;99.90;;;;;;8396695;28;19935;-71
2023/08/15 18:14:17;;;;;;;;;;;23.00;99.90;;;;;;8399019;28;19925;-71
2023/08/15 18:18:19;;;;;;;;;;;23.00;99.90;;;;;;8399296;28;19940;-71
2023/08/15 18:22:20;;;;;;;;;;;22.80;99.90;;;;;;8404072;28;19965;-71
2023/08/15 18:26:22;;;;;;;;;;;22.80;99.90;;;;;;8404063;28;19954;-71
2023/08/15 18:30:27;;;;;;;;;;;22.70;99.90;;;;;;8410929;28;21501;-71
2023/08/15 18:34:28;;;;;;;;;;;22.70;99.90;;;;;;8401467;28;19936;-71
2023/08/15 18:38:31;;;;;;;;;;;22.70;99.90;;;;;;8406938;28;20308;-71
2023/08/15 18:42:33;;;;;;;;;;;22.70;99.90;;;;;;8405427;28;19928;-71
2023/08/15 18:46:36;;;;;;;;;;;22.60;99.90;;;;;;8410428;28;19924;-71
2023/08/15 18:50:41;;;;;;;;;;;22.60;99.90;;;;;;8399172;28;19932;-71
2023/08/15 18:54:43;;;;;;;;;;;22.60;99.90;;;;;;8401697;28;19955;-71
2023/08/15 18:58:46;;;;;;;;;;;22.50;99.90;;;;;;8425181;28;19931;-71
2023/08/15 19:02:47;;;;;;;;;;;22.50;99.90;;;;;;8413103;28;19924;-71
2023/08/15 19:06:49;;;;;;;;;;;22.50;99.90;;;;;;8405687;28;19935;-71
2023/08/15 19:10:52;;;;;;;;;;;22.40;99.90;;;;;;8406448;28;19924;-71
2023/08/15 19:14:56;;;;;;;;;;;22.30;99.90;;;;;;8402396;28;19950;-71
2023/08/15 19:19:02;;;;;;;;;;;22.20;99.90;;;;;;8404705;28;19925;-71
2023/08/15 19:23:04;;;;;;;;;;;22.10;99.90;;;;;;8386218;28;19924;-71
2023/08/15 19:27:07;;;;;;;;;;;22.00;99.90;;;;;;8399299;28;19972;-71
2023/08/15 19:31:10;;;;;;;;;;;21.90;99.90;;;;;;8408913;28;20304;-71
2023/08/15 19:35:15;;;;;;;;;;;21.70;99.90;;;;;;8403066;28;19955;-71
2023/08/15 19:39:17;;;;;;;;;;;21.60;99.90;;;;;;8403332;28;19972;-71
2023/08/15 19:43:19;;;;;;;;;;;21.50;99.90;;;;;;8404751;28;19932;-71
2023/08/15 19:47:21;;;;;;;;;;;21.40;99.90;;;;;;8394279;28;19928;-71
2023/08/15 19:51:23;;;;;;;;;;;21.20;99.90;;;;;;8413400;28;19982;-71
2023/08/15 19:55:25;;;;;;;;;;;21.10;99.90;;;;;;8399483;28;20121;-70
2023/08/15 19:59:27;;;;;;;;;;;20.90;99.90;;;;;;8379121;28;19935;-71
2023/08/15 20:03:29;;;;;;;;;;;20.80;99.90;;;;;;8383657;28;20304;-71
2023/08/15 20:07:31;;;;;;;;;;;20.70;99.90;;;;;;8399371;28;19928;-71
2023/08/15 20:11:32;;;;;;;;;;;20.70;99.90;;;;;;8400150;28;19924;-71
2023/08/15 20:15:38;;;;;;;;;;;20.60;99.90;;;;;;8410834;28;20000;-70
2023/08/15 20:19:40;;;;;;;;;;;20.50;99.90;;;;;;8396291;28;19932;-71
2023/08/15 20:23:41;;;;;;;;;;;20.40;99.90;;;;;;8417958;27;19935;-71
2023/08/15 20:27:43;;;;;;;;;;;20.40;99.90;;;;;;8400876;28;20480;-71
2023/08/15 20:31:45;;;;;;;;;;;20.30;99.90;;;;;;8395342;28;19924;-71
2023/08/15 20:35:46;;;;;;;;;;;20.20;99.90;;;;;;8395518;28;20329;-70
2023/08/15 20:39:48;;;;;;;;;;;20.10;99.90;;;;;;8398005;28;20031;-71
2023/08/15 20:43:50;;;;;;;;;;;20.00;99.90;;;;;;8412610;28;19989;-70
2023/08/15 20:47:51;;;;;;;;;;;19.90;99.90;;;;;;8397422;28;20284;-71
2023/08/15 20:51:53;;;;;;;;;;;19.80;99.90;;;;;;8398300;28;19964;-71
2023/08/15 20:55:55;;;;;;;;;;;19.80;99.90;;;;;;8400931;28;19928;-71
2023/08/15 20:59:57;;;;;;;;;;;19.70;99.90;;;;;;8398379;28;19925;-71
2023/08/15 21:03:59;;;;;;;;;;;19.60;99.90;;;;;;8411617;28;19924;-71
2023/08/15 21:08:01;;;;;;;;;;;19.60;99.90;;;;;;8415190;28;19923;-71
2023/08/15 21:12:03;;;;;;;;;;;19.60;99.90;;;;;;8423357;28;19928;-71
2023/08/15 21:16:04;;;;;;;;;;;19.50;99.90;;;;;;8416208;28;20020;-71
2023/08/15 21:20:06;;;;;;;;;;;19.50;99.90;;;;;;8434080;28;19928;-71
2023/08/15 21:24:08;;;;;;;;;;;19.50;99.90;;;;;;8414716;28;20334;-70
2023/08/15 21:28:10;;;;;;;;;;;19.50;99.90;;;;;;8426987;28;20345;-70
2023/08/15 21:32:11;;;;;;;;;;;19.40;99.90;;;;;;8414837;28;19978;-71
2023/08/15 21:36:13;;;;;;;;;;;19.40;99.90;;;;;;8405741;28;19924;-71
2023/08/15 21:40:14;;;;;;;;;;;19.40;99.90;;;;;;8412890;28;19955;-71
2023/08/15 21:44:17;;;;;;;;;;;19.40;99.90;;;;;;8431213;28;19924;-71
2023/08/15 21:48:19;;;;;;;;;;;19.40;99.90;;;;;;8414092;28;19925;-71
2023/08/15 21:52:21;;;;;;;;;;;19.30;99.90;;;;;;8430710;28;19939;-71
2023/08/15 21:56:23;;;;;;;;;;;19.30;99.90;;;;;;8415118;28;19924;-71
2023/08/15 22:00:26;;;;;;;;;;;19.20;99.90;;;;;;8418600;28;19931;-71
2023/08/15 22:04:28;;;;;;;;;;;19.20;99.90;;;;;;8418709;28;19925;-70
2023/08/15 22:08:29;;;;;;;;;;;19.10;99.90;;;;;;8420167;28;20397;-71
2023/08/15 22:12:31;;;;;;;;;;;19.00;99.90;;;;;;8423349;28;20368;-70
2023/08/15 22:16:33;;;;;;;;;;;19.00;99.90;;;;;;8424072;28;20269;-70
2023/08/15 22:20:35;;;;;;;;;;;18.90;99.90;;;;;;8423155;28;19928;-71
2023/08/15 22:24:36;;;;;;;;;;;18.90;99.90;;;;;;8411423;28;20042;-71
2023/08/15 22:28:38;;;;;;;;;;;18.80;99.90;;;;;;8427276;28;20444;-70
2023/08/15 22:32:40;;;;;;;;;;;18.80;99.90;;;;;;8428959;28;19928;-70
2023/08/15 22:36:42;;;;;;;;;;;18.80;99.90;;;;;;8432655;28;19959;-70
2023/08/15 22:40:43;;;;;;;;;;;18.70;99.90;;;;;;8422352;28;20482;-70
2023/08/15 22:44:45;;;;;;;;;;;18.70;99.90;;;;;;8418155;28;19924;-71
2023/08/15 22:48:47;;;;;;;;;;;18.60;99.90;;;;;;8400591;28;19931;-70
2023/08/15 22:52:48;;;;;;;;;;;18.50;99.90;;;;;;8416261;28;20347;-70
2023/08/15 22:56:50;;;;;;;;;;;18.40;99.90;;;;;;8411870;28;20407;-70
2023/08/15 23:00:56;;;;;;;;;;;18.30;99.90;;;;;;8420753;28;19971;-70
2023/08/15 23:04:57;;;;;;;;;;;18.30;99.90;;;;;;8415847;28;20014;-70
2023/08/15 23:08:59;;;;;;;;;;;18.30;99.90;;;;;;8425799;28;20421;-70
2023/08/15 23:13:01;;;;;;;;;;;18.40;99.90;;;;;;8420209;28;20383;-70
2023/08/15 23:17:02;;;;;;;;;;;18.40;99.90;;;;;;8417842;28;19924;-70
2023/08/15 23:21:05;;;;;;;;;;;18.30;99.90;;;;;;8418811;28;19924;-70
2023/08/15 23:25:07;;;;;;;;;;;18.20;99.90;;;;;;8406882;28;19928;-70
2023/08/15 23:29:08;;;;;;;;;;;18.10;99.90;;;;;;8417342;28;20337;-70
2023/08/15 23:33:11;;;;;;;;;;;18.00;99.90;;;;;;8416807;28;19950;-70